createdAt,value
2022-08-04T00:01:22.658Z,69.19
2022-08-04T00:07:53.531Z,69.96
2022-08-04T00:14:15.024Z,70.25
2022-08-04T00:20:21.300Z,71.45
2022-08-04T00:26:23.756Z,72.25
2022-08-04T00:32:33.670Z,72.52
2022-08-04T00:38:37.261Z,71.99
2022-08-04T00:45:02.163Z,73.20
2022-08-04T00:51:25.784Z,73.77
2022-08-04T00:58:05.683Z,74.77
2022-08-04T01:05:02.385Z,75.29
2022-08-04T01:11:26.223Z,75.16
2022-08-04T01:18:08.070Z,75.44
2022-08-04T01:24:34.556Z,75.99
2022-08-04T01:30:40.620Z,75.79
2022-08-04T01:36:52.461Z,75.70
2022-08-04T01:42:55.505Z,76.06
2022-08-04T01:48:58.504Z,76.87
2022-08-04T01:55:04.141Z,76.42
2022-08-04T02:01:09.486Z,77.70
2022-08-04T02:07:39.376Z,78.56
2022-08-04T02:14:00.429Z,78.74
2022-08-04T02:20:16.122Z,79.70
2022-08-04T02:26:23.168Z,80.54
2022-08-04T02:32:33.408Z,80.72
2022-08-04T02:38:51.165Z,80.84
2022-08-04T02:44:57.040Z,81.07
2022-08-04T02:51:01.130Z,80.79
2022-08-04T02:57:08.587Z,80.91
2022-08-04T03:03:26.748Z,80.59
2022-08-04T03:09:55.162Z,80.37
2022-08-04T03:16:54.511Z,80.71
2022-08-04T03:23:38.385Z,81.26
2022-08-04T03:30:34.151Z,81.53
2022-08-04T03:37:32.712Z,82.79
2022-08-04T03:44:22.207Z,82.59
2022-08-04T03:50:27.022Z,83.00
2022-08-04T03:56:47.321Z,83.04
2022-08-04T04:03:11.184Z,83.02
2022-08-04T04:10:06.142Z,83.32
2022-08-04T04:16:42.742Z,84.26
2022-08-04T04:23:37.708Z,84.26
2022-08-04T04:30:25.388Z,84.15
2022-08-04T04:36:36.529Z,83.82
2022-08-04T04:43:12.839Z,84.63
2022-08-04T04:49:54.459Z,84.34
2022-08-04T04:56:20.068Z,80.68
2022-08-04T05:02:37.052Z,80.91
2022-08-04T05:09:17.524Z,81.08
2022-08-04T05:15:25.513Z,79.00
2022-08-04T05:21:48.661Z,78.30
2022-08-04T05:28:06.684Z,79.71
2022-08-04T05:34:12.736Z,78.34
2022-08-04T05:40:17.579Z,80.04
2022-08-04T05:46:20.342Z,78.13
2022-08-04T05:52:23.803Z,73.90
2022-08-04T05:58:27.064Z,73.37
2022-08-04T06:04:38.221Z,70.60
2022-08-04T06:10:42.728Z,64.32
2022-08-04T06:16:50.788Z,62.25
2022-08-04T06:22:58.928Z,60.96
2022-08-04T06:29:03.225Z,58.73
2022-08-04T06:35:08.050Z,56.13
2022-08-04T06:41:10.186Z,54.44
2022-08-04T06:47:18.251Z,53.19
2022-08-04T06:53:20.580Z,55.45
2022-08-04T06:59:23.098Z,51.80
2022-08-04T07:05:25.784Z,48.96
2022-08-04T07:11:28.547Z,48.71
2022-08-04T07:17:42.435Z,43.90
2022-08-04T07:23:45.952Z,43.41
2022-08-04T07:29:48.637Z,42.04
2022-08-04T07:36:04.907Z,40.44
2022-08-04T07:42:13.601Z,39.58
2022-08-04T07:48:18.691Z,37.79
2022-08-04T07:54:22.451Z,37.51
2022-08-04T08:00:24.558Z,35.28
2022-08-04T08:06:32.785Z,34.88
2022-08-04T08:12:50.766Z,33.77
2022-08-04T08:18:55.065Z,35.31
2022-08-04T08:24:57.153Z,34.50
2022-08-04T08:31:00.043Z,33.81
2022-08-04T08:37:12.895Z,32.60
2022-08-04T08:44:04.638Z,31.48
2022-08-04T08:50:22.040Z,31.30
2022-08-04T08:56:32.599Z,30.60
2022-08-04T09:03:33.345Z,31.69
2022-08-04T09:09:40.786Z,30.98
2022-08-04T09:15:59.672Z,30.09
2022-08-04T09:22:30.959Z,29.12
2022-08-04T09:28:54.165Z,28.14
2022-08-04T09:35:37.375Z,28.56
2022-08-04T09:42:11.278Z,28.87
2022-08-04T09:48:58.943Z,26.72
2022-08-04T09:55:18.733Z,27.30
2022-08-04T10:01:24.881Z,27.34
2022-08-04T10:08:22.833Z,27.91
2022-08-04T10:14:41.369Z,26.82
2022-08-04T10:21:15.393Z,26.49
2022-08-04T10:27:34.927Z,25.14
2022-08-04T10:34:12.801Z,24.57
2022-08-04T10:40:45.587Z,25.35
2022-08-04T10:46:59.702Z,23.63
2022-08-04T10:53:12.232Z,24.07
2022-08-04T10:59:26.349Z,24.34
2022-08-04T11:05:46.533Z,23.94
2022-08-04T11:12:15.529Z,23.13
2022-08-04T11:18:58.156Z,22.60
2022-08-04T11:25:21.027Z,21.90
2022-08-04T11:31:36.238Z,23.98
2022-08-04T11:37:56.481Z,25.66
2022-08-04T11:44:04.264Z,25.76
2022-08-04T11:50:32.516Z,25.02
2022-08-04T11:56:36.722Z,23.34
2022-08-04T12:03:22.539Z,23.01
2022-08-04T12:10:03.202Z,23.01
2022-08-04T12:17:08.705Z,22.56
2022-08-04T12:23:26.962Z,23.22
2022-08-04T12:29:34.575Z,24.79
2022-08-04T12:36:11.033Z,24.60
2022-08-04T12:42:32.503Z,23.99
2022-08-04T12:48:38.556Z,23.30
2022-08-04T12:54:43.674Z,23.12
2022-08-04T13:00:56.924Z,23.44
2022-08-04T13:07:13.799Z,23.95
2022-08-04T13:13:24.367Z,22.70
2022-08-04T13:19:27.339Z,21.17
2022-08-04T13:26:44.490Z,18.87
2022-08-04T13:31:55.760Z,19.20
2022-08-04T13:37:59.498Z,19.09
2022-08-04T13:44:18.507Z,19.41
2022-08-04T13:50:27.560Z,21.09
2022-08-04T13:56:40.166Z,20.80
2022-08-04T14:03:01.198Z,19.53
2022-08-04T14:09:17.764Z,20.14
2022-08-04T14:15:54.798Z,19.18
2022-08-04T14:22:05.919Z,19.87
2022-08-04T14:28:08.130Z,18.93
2022-08-04T14:34:18.807Z,19.30
2022-08-04T14:40:31.600Z,19.96
2022-08-04T14:46:36.412Z,20.90
2022-08-04T14:52:39.654Z,22.16
2022-08-04T14:58:41.650Z,24.23
2022-08-04T15:04:47.530Z,24.77
2022-08-04T15:10:49.674Z,25.25
2022-08-04T15:16:54.278Z,25.20
2022-08-04T15:22:56.831Z,24.87
2022-08-04T15:29:16.494Z,26.71
2022-08-04T15:35:30.895Z,22.37
2022-08-04T15:41:56.819Z,24.89
2022-08-04T15:48:05.353Z,25.98
2022-08-04T15:54:27.350Z,25.96
2022-08-04T16:00:50.914Z,26.87
2022-08-04T16:07:05.498Z,28.38
2022-08-04T16:13:14.662Z,28.42
2022-08-04T16:20:01.655Z,28.46
2022-08-04T16:26:03.905Z,28.05
2022-08-04T16:32:06.254Z,28.04
2022-08-04T16:38:15.241Z,28.02
2022-08-04T16:44:52.879Z,29.13
2022-08-04T16:51:13.000Z,27.60
2022-08-04T16:57:16.185Z,29.16
2022-08-04T17:03:18.436Z,29.28
2022-08-04T17:09:23.359Z,30.30
2022-08-04T17:15:28.087Z,30.60
2022-08-04T17:21:34.128Z,30.48
2022-08-04T17:28:20.025Z,31.79
2022-08-04T17:34:01.997Z,33.86
2022-08-04T17:40:18.480Z,38.02
2022-08-04T17:46:30.165Z,40.90
2022-08-04T17:59:56.969Z,44.50
2022-08-04T18:05:54.067Z,46.56
2022-08-04T18:12:23.137Z,46.33
2022-08-04T18:18:25.618Z,46.90
2022-08-04T18:24:35.566Z,48.21
2022-08-04T18:30:55.631Z,47.08
2022-08-04T18:36:59.136Z,46.79
2022-08-04T18:43:01.321Z,47.75
2022-08-04T18:49:03.478Z,48.63
2022-08-04T18:55:07.405Z,49.81
2022-08-04T19:01:13.634Z,50.67
2022-08-04T19:07:29.713Z,51.06
2022-08-04T19:19:54.668Z,50.84
2022-08-04T19:26:06.832Z,51.94
2022-08-04T19:38:38.321Z,53.91
2022-08-04T19:44:43.788Z,56.61
2022-08-04T19:50:47.215Z,57.35
2022-08-04T19:56:50.277Z,58.13
2022-08-04T20:02:52.500Z,57.98
2022-08-04T20:08:55.257Z,58.42
2022-08-04T20:14:59.929Z,59.07
2022-08-04T20:21:01.900Z,59.78
2022-08-04T20:27:07.688Z,59.28
2022-08-04T20:33:13.870Z,58.65
2022-08-04T20:39:16.062Z,59.93
2022-08-04T20:45:18.642Z,60.45
2022-08-04T20:51:31.938Z,60.01
2022-08-04T21:10:39.848Z,59.38
2022-08-04T21:16:53.940Z,60.42
2022-08-04T21:22:59.451Z,61.71
2022-08-04T21:29:04.762Z,59.33
2022-08-04T21:35:10.465Z,60.68
2022-08-04T21:41:24.145Z,61.90
2022-08-04T21:47:45.916Z,64.17
2022-08-04T21:53:53.779Z,64.83
2022-08-04T21:59:57.098Z,65.79
2022-08-04T22:06:02.142Z,67.14
2022-08-04T22:12:04.602Z,64.40
2022-08-04T22:18:06.596Z,64.43
2022-08-04T22:24:08.858Z,63.60
2022-08-04T22:30:17.753Z,64.00
2022-08-04T22:36:20.893Z,65.57
2022-08-04T22:42:26.965Z,65.48
2022-08-04T22:48:29.048Z,65.77
2022-08-04T22:54:34.181Z,65.96
2022-08-04T23:00:36.388Z,65.00
2022-08-04T23:06:42.125Z,65.36
2022-08-04T23:12:47.417Z,66.44
2022-08-04T23:18:51.831Z,68.71
2022-08-04T23:24:53.904Z,68.55
2022-08-04T23:30:56.461Z,70.16
2022-08-04T23:36:59.452Z,72.74
2022-08-04T23:43:16.860Z,78.03
2022-08-04T23:49:19.776Z,81.67
2022-08-04T23:55:21.859Z,86.96
